首页
METAR-TAF:

METAR-TAF

机场 :

通孔廷国际机场

德古斯加巴, 洪都拉斯

纬度: 14-03N, 经度: 087-13W, 海拔: 994米

当前天气观测

该预报发布于6小时和36分钟前的22:00 UTC
风速12节,风向南转西南
温度 22°C
湿度 100%
气压 1013 hPa
能見度: 4000
少量云层高于1000英尺
散云层高于2400英尺
阴天层高于8000英尺
附近有阵雨

METAR: MHTG 042200Z 20012KT 8000 4000SW VCSH FEW010 SCT024 OVC080 22/22 Q1013 A2991 RERA

时间: 22:36 (04:36 UTC)

预报

该预报发布于6小时和6分钟前的22:30 UTC
预报有效从05日的 00点(UTC)到 05日的 24点(UTC)
风速6节,风向
能見度: 6000
散云层高于2800英尺, 塔状积云.
多云层高于8000英尺
雷暴, 小雨
成为
从 05日的 04点(UTC)到 05日的 06点(UTC)
能見度: 7000
散云层高于2600英尺
阴天层高于8000英尺
成为
从 05日的 10点(UTC)到 05日的 12点(UTC)
能見度: 5000
少量云层高于800英尺
散云层高于2600英尺
多云层高于8000英尺
附近有阵雨
成为
从 05日的 15点(UTC)到 05日的 17点(UTC)
能見度: 8000
少量云层高于1000英尺
散云层高于2600英尺, 塔状积云.
多云层高于8000英尺
成为
从 05日的 19点(UTC)到 05日的 21点(UTC)
能見度: 6000
散云层高于2800英尺, 积雨云.
多云层高于8000英尺
雷暴, 小雨

TAF: MHTG 042230Z 0500/0524 19006KT 6000 -TSRA SCT028TCU BKN080 TX24/0520Z TN17/0512Z BECMG 0504/0506 7000 RA SCT026 OVC080 BECMG 0510/0512 5000 VCSH FEW008 SCT026 BKN080 BECMG 0515/0517 8000 FEW010 SCT026TCU BKN080 BECMG 0519/0521 6000 -TSRA SCT028CB BKN080

超过4000个机场的气象观测和天气预报(METAR&TAF报告)。

可查询的气象台以黄色和红色小点在地图上表示。

将鼠标移到小点上方,可查看气象台名称。

然后点击查看天气观测和预报。

如需切换地图:点击带黑十字的绿色按钮放大地图;点击带横线的绿色按钮缩小地图;或者点击绿色箭头查看邻近地区的地图。


METAR-TAF: